Time;durP1;ratioP1;P1;durP2;ratioP2;P2;SDS_P1;SDS_P2;PMS_P1;PMS_P2;Temp;Humidity;BMP_temperature;BMP_pressure;BME280_temperature;BME280_humidity;BME280_pressure;Samples;Min_cycle;Max_cycle;Signal;HPM_P1;HPM_P2
2021/11/24 00:00:20;;;;;;;20.92;1.60;;;6.70;99.90;;;;;;5011372;28;20511;-66
2021/11/24 00:02:47;;;;;;;12.70;1.40;;;6.60;99.90;;;;;;5011897;28;20065;-66
2021/11/24 00:05:13;;;;;;;12.00;1.30;;;6.60;99.90;;;;;;5010661;28;20030;-66
2021/11/24 00:07:40;;;;;;;13.88;1.52;;;6.50;99.90;;;;;;5011546;28;20030;-66
2021/11/24 00:10:06;;;;;;;4.00;0.90;;;6.50;99.90;;;;;;5011490;28;20117;-66
2021/11/24 00:12:32;;;;;;;8.05;1.73;;;6.50;99.90;;;;;;5011152;28;20029;-66
2021/11/24 00:14:58;;;;;;;13.82;1.23;;;6.50;99.90;;;;;;5010820;28;20026;-66
2021/11/24 00:17:23;;;;;;;7.43;1.02;;;6.50;99.90;;;;;;5011404;28;20022;-66
2021/11/24 00:19:49;;;;;;;12.15;1.70;;;6.50;99.90;;;;;;5011345;28;20029;-66
2021/11/24 00:22:15;;;;;;;7.13;1.02;;;6.50;99.90;;;;;;5010808;28;20025;-66
2021/11/24 00:24:40;;;;;;;8.35;1.13;;;6.40;99.90;;;;;;5010961;28;20465;-66
2021/11/24 00:27:06;;;;;;;11.13;1.63;;;6.40;99.90;;;;;;5010956;28;20022;-66
2021/11/24 00:29:32;;;;;;;6.57;0.98;;;6.40;99.90;;;;;;5011759;28;20022;-66
2021/11/24 00:31:57;;;;;;;22.40;1.73;;;6.40;99.90;;;;;;5011194;28;20079;-66
2021/11/24 00:34:23;;;;;;;13.18;1.02;;;6.50;99.90;;;;;;5010864;28;20033;-66
2021/11/24 00:36:48;;;;;;;9.10;0.98;;;6.50;99.90;;;;;;5010336;28;20090;-66
2021/11/24 00:39:15;;;;;;;6.53;1.20;;;6.60;99.90;;;;;;5010739;28;20064;-66
2021/11/24 00:41:40;;;;;;;13.00;1.40;;;6.60;99.90;;;;;;5011159;28;20022;-66
2021/11/24 00:44:06;;;;;;;12.02;2.08;;;6.60;99.90;;;;;;5011180;28;20083;-66
2021/11/24 00:46:33;;;;;;;9.30;1.25;;;6.70;99.90;;;;;;5010194;28;20072;-66
2021/11/24 00:48:59;;;;;;;9.80;1.10;;;6.70;99.90;;;;;;5010691;28;20437;-66
2021/11/24 00:51:25;;;;;;;5.07;1.13;;;6.60;99.90;;;;;;5010679;28;20026;-66
2021/11/24 00:53:50;;;;;;;14.27;1.48;;;6.60;99.90;;;;;;5011035;28;20094;-66
2021/11/24 00:56:16;;;;;;;5.97;1.25;;;6.50;99.90;;;;;;5010927;28;20519;-66
2021/11/24 00:58:41;;;;;;;5.13;0.93;;;6.50;99.90;;;;;;5010762;28;20061;-66
2021/11/24 01:01:07;;;;;;;12.13;1.38;;;6.50;99.90;;;;;;5009979;28;20018;-66
2021/11/24 01:03:33;;;;;;;11.23;1.13;;;6.50;99.90;;;;;;5010751;28;20026;-66
2021/11/24 01:05:58;;;;;;;10.75;1.05;;;6.50;99.90;;;;;;5010685;28;20022;-66
2021/11/24 01:08:24;;;;;;;12.50;1.92;;;6.50;99.90;;;;;;5010797;28;20030;-66
2021/11/24 01:10:49;;;;;;;8.43;1.10;;;6.40;99.90;;;;;;5009829;28;20476;-67
2021/11/24 01:13:16;;;;;;;7.88;1.40;;;6.40;99.90;;;;;;5010419;28;20087;-66
2021/11/24 01:15:43;;;;;;;11.52;1.23;;;6.50;99.90;;;;;;5010355;28;20022;-66
2021/11/24 01:18:09;;;;;;;13.32;1.98;;;6.40;99.90;;;;;;5009771;28;20545;-66
2021/11/24 01:20:34;;;;;;;8.23;1.23;;;6.50;99.90;;;;;;5010311;28;20033;-66
2021/11/24 01:23:00;;;;;;;16.25;1.52;;;6.50;99.90;;;;;;5010296;28;20068;-66
2021/11/24 01:25:26;;;;;;;7.85;1.55;;;6.60;99.90;;;;;;5010165;28;20433;-66
2021/11/24 01:27:52;;;;;;;16.48;1.77;;;6.70;99.90;;;;;;5010267;28;20037;-66
2021/11/24 01:30:17;;;;;;;20.83;2.08;;;6.70;99.90;;;;;;5010741;28;20030;-66
2021/11/24 01:32:43;;;;;;;7.57;1.20;;;6.80;99.90;;;;;;5009851;28;20026;-66
2021/11/24 01:35:10;;;;;;;5.43;1.02;;;6.80;99.90;;;;;;5009983;28;20480;-66
2021/11/24 01:37:35;;;;;;;3.65;1.13;;;6.80;99.90;;;;;;5010200;28;20107;-66
2021/11/24 01:40:03;;;;;;;11.02;1.10;;;6.70;99.90;;;;;;5010083;28;20457;-66
2021/11/24 01:42:28;;;;;;;7.80;1.10;;;6.70;99.90;;;;;;5009473;28;20021;-66
2021/11/24 01:44:55;;;;;;;10.13;1.95;;;6.60;99.90;;;;;;5010163;28;20146;-66
2021/11/24 01:47:20;;;;;;;17.17;1.65;;;6.60;99.90;;;;;;5009932;28;20465;-66
2021/11/24 01:49:48;;;;;;;9.95;1.08;;;6.50;99.90;;;;;;5009944;28;20034;-66
2021/11/24 01:52:14;;;;;;;13.77;1.30;;;6.50;99.90;;;;;;5009367;28;20022;-66
2021/11/24 01:54:39;;;;;;;14.15;1.48;;;6.50;99.90;;;;;;5009716;28;20568;-66
2021/11/24 01:57:05;;;;;;;18.55;1.98;;;6.40;99.90;;;;;;5010155;28;20066;-66
2021/11/24 01:59:31;;;;;;;14.18;1.40;;;6.40;99.90;;;;;;5009368;28;20069;-66
2021/11/24 02:01:57;;;;;;;14.05;1.58;;;6.30;99.90;;;;;;5009815;28;20050;-66
2021/11/24 02:04:23;;;;;;;3.35;1.00;;;6.30;99.90;;;;;;5009756;28;20400;-66
2021/11/24 02:06:50;;;;;;;10.18;1.17;;;6.20;99.90;;;;;;5009721;28;20034;-66
2021/11/24 02:09:16;;;;;;;9.90;1.42;;;6.20;99.90;;;;;;5009755;28;20026;-66
2021/11/24 02:11:43;;;;;;;15.95;1.50;;;6.20;99.90;;;;;;5010052;28;20548;-66
2021/11/24 02:14:10;;;;;;;16.17;1.42;;;6.10;99.90;;;;;;5013198;28;20030;-66
2021/11/24 02:16:45;;;;;;;18.33;1.60;;;6.00;99.90;;;;;;5013054;28;20484;-66
2021/11/24 02:19:11;;;;;;;14.32;1.35;;;5.90;99.90;;;;;;5013146;28;20416;-66
2021/11/24 02:21:37;;;;;;;24.35;2.30;;;5.90;99.90;;;;;;5012381;28;20581;-66
2021/11/24 02:24:03;;;;;;;10.52;1.27;;;5.90;99.90;;;;;;5012762;28;20034;-66
2021/11/24 02:26:29;;;;;;;13.35;1.67;;;6.00;99.90;;;;;;5012774;28;20112;-66
2021/11/24 02:28:54;;;;;;;17.42;2.40;;;6.20;99.90;;;;;;5013333;28;20156;-66
2021/11/24 02:31:23;;;;;;;14.27;1.45;;;6.30;99.90;;;;;;5012782;28;20473;-66
2021/11/24 02:33:53;;;;;;;20.17;2.10;;;6.30;99.90;;;;;;5012064;28;20512;-66
2021/11/24 02:36:19;;;;;;;5.78;1.38;;;6.40;99.90;;;;;;5012955;28;20116;-66
2021/11/24 02:38:45;;;;;;;13.68;1.75;;;6.50;99.90;;;;;;5012757;28;20507;-66
2021/11/24 02:41:11;;;;;;;17.85;2.10;;;6.50;99.90;;;;;;5012352;28;20030;-66
2021/11/24 02:43:36;;;;;;;21.33;4.00;;;6.50;99.90;;;;;;5012559;28;20396;-66
2021/11/24 02:46:02;;;;;;;13.20;1.40;;;6.50;99.90;;;;;;5012442;28;20026;-66
2021/11/24 02:48:28;;;;;;;16.50;1.25;;;6.50;99.90;;;;;;5012527;28;20503;-66
2021/11/24 02:50:56;;;;;;;11.40;2.25;;;6.40;99.90;;;;;;5011967;28;20042;-66
2021/11/24 02:53:29;;;;;;;11.40;1.48;;;6.40;99.90;;;;;;5012673;28;20084;-66
2021/11/24 02:55:56;;;;;;;9.07;1.23;;;6.30;99.90;;;;;;5011835;28;20030;-66
2021/11/24 02:58:22;;;;;;;21.45;1.45;;;6.20;99.90;;;;;;5012598;28;20380;-66
2021/11/24 03:00:48;;;;;;;15.98;1.75;;;6.10;99.90;;;;;;5012893;28;20080;-66
2021/11/24 03:03:14;;;;;;;15.45;1.95;;;6.20;99.90;;;;;;5011723;28;20026;-66
2021/11/24 03:05:39;;;;;;;5.95;1.27;;;6.10;99.90;;;;;;5012430;28;20022;-66
2021/11/24 03:08:05;;;;;;;11.90;1.35;;;6.10;99.90;;;;;;5012177;28;20392;-66
2021/11/24 03:10:32;;;;;;;13.00;1.70;;;6.00;99.90;;;;;;5012714;28;20032;-66
2021/11/24 03:12:59;;;;;;;14.73;1.30;;;6.00;99.90;;;;;;5012418;28;20544;-66
2021/11/24 03:15:25;;;;;;;6.57;1.05;;;5.90;99.90;;;;;;5011485;28;20105;-66
2021/11/24 03:17:50;;;;;;;6.80;0.77;;;5.90;99.90;;;;;;5012287;28;20061;-66
2021/11/24 03:20:16;;;;;;;4.80;1.17;;;5.90;99.90;;;;;;5012310;28;20061;-66
2021/11/24 03:22:42;;;;;;;11.40;1.33;;;5.90;99.90;;;;;;5011850;28;20037;-66
2021/11/24 03:25:10;;;;;;;13.18;1.55;;;6.10;99.90;;;;;;5012377;28;20030;-66
2021/11/24 03:27:37;;;;;;;5.78;1.10;;;6.10;99.90;;;;;;5011510;28;20481;-66
2021/11/24 03:30:07;;;;;;;10.55;1.13;;;6.10;99.90;;;;;;5012128;28;20025;-66
2021/11/24 03:32:33;;;;;;;19.27;1.88;;;6.10;99.90;;;;;;5011759;28;20022;-66
2021/11/24 03:34:58;;;;;;;23.02;1.35;;;6.10;99.90;;;;;;5012036;28;20098;-66
2021/11/24 03:37:24;;;;;;;16.45;1.75;;;6.20;99.90;;;;;;5011262;28;20022;-66
2021/11/24 03:39:50;;;;;;;10.85;1.10;;;6.20;99.90;;;;;;5011616;28;20030;-66
2021/11/24 03:42:16;;;;;;;11.27;1.30;;;6.10;99.90;;;;;;5012148;28;20030;-66
2021/11/24 03:44:42;;;;;;;8.02;1.33;;;6.10;99.90;;;;;;5011594;28;20452;-66
2021/11/24 03:47:08;;;;;;;20.98;1.30;;;6.00;99.90;;;;;;5011207;28;20054;-66
2021/11/24 03:49:34;;;;;;;10.95;1.30;;;5.90;99.90;;;;;;5011597;28;20030;-66
2021/11/24 03:51:59;;;;;;;12.00;1.60;;;5.90;99.90;;;;;;5011513;28;20052;-66
2021/11/24 03:54:25;;;;;;;18.75;1.58;;;5.80;99.90;;;;;;5011526;28;20034;-66
2021/11/24 03:56:51;;;;;;;13.48;1.25;;;5.80;99.90;;;;;;5011762;28;20030;-66
2021/11/24 03:59:16;;;;;;;12.57;1.48;;;5.80;99.90;;;;;;5010812;28;20037;-66
2021/11/24 04:01:42;;;;;;;8.25;1.98;;;5.90;99.90;;;;;;5011662;28;20495;-66
2021/11/24 04:04:07;;;;;;;22.80;1.42;;;5.90;99.90;;;;;;5011308;28;20057;-66
2021/11/24 04:06:33;;;;;;;9.18;1.20;;;5.90;99.90;;;;;;5011353;28;20052;-66
2021/11/24 04:09:00;;;;;;;12.60;1.25;;;5.90;99.90;;;;;;5011346;28;20162;-66
2021/11/24 04:11:26;;;;;;;8.77;1.02;;;5.90;99.90;;;;;;5011020;28;20026;-66
2021/11/24 04:13:52;;;;;;;11.23;1.88;;;6.00;99.90;;;;;;5011158;28;20033;-66
2021/11/24 04:16:18;;;;;;;5.68;1.45;;;6.10;99.90;;;;;;5011432;28;20022;-66
2021/11/24 04:18:43;;;;;;;16.38;2.05;;;6.20;99.90;;;;;;5011317;28;20044;-66
2021/11/24 04:21:09;;;;;;;11.55;1.27;;;6.40;99.90;;;;;;5011407;28;20075;-66
2021/11/24 04:23:35;;;;;;;22.67;2.20;;;6.50;99.90;;;;;;5010537;28;20546;-66
2021/11/24 04:26:01;;;;;;;15.38;1.60;;;6.60;99.90;;;;;;5001385;28;20113;-66
2021/11/24 04:28:27;;;;;;;5.35;1.02;;;6.70;99.90;;;;;;5010995;28;20447;-66
2021/11/24 04:30:52;;;;;;;13.85;1.45;;;6.90;99.90;;;;;;5010962;28;20026;-66
2021/11/24 04:33:18;;;;;;;7.65;1.33;;;6.90;99.90;;;;;;5008247;28;20022;-66
2021/11/24 04:35:44;;;;;;;11.80;1.73;;;7.00;99.90;;;;;;4990633;28;20026;-66
2021/11/24 04:38:09;;;;;;;13.02;1.50;;;7.00;99.90;;;;;;4998312;28;20105;-66
2021/11/24 04:40:35;;;;;;;11.25;1.30;;;7.00;99.90;;;;;;5010764;28;20109;-66
2021/11/24 04:43:04;;;;;;;8.60;1.30;;;7.00;99.90;;;;;;5011064;28;20026;-66
2021/11/24 04:45:29;;;;;;;12.77;2.10;;;7.00;99.90;;;;;;5010977;28;20359;-66
2021/11/24 04:47:55;;;;;;;6.30;1.23;;;7.00;99.90;;;;;;5010205;28;20037;-66
2021/11/24 04:50:20;;;;;;;4.47;0.82;;;7.10;99.90;;;;;;5010816;28;20022;-66
2021/11/24 04:52:47;;;;;;;5.50;1.30;;;7.20;99.90;;;;;;5010902;28;20106;-66
2021/11/24 04:55:14;;;;;;;9.88;1.90;;;7.20;99.90;;;;;;5010426;28;20164;-66
2021/11/24 04:57:40;;;;;;;7.97;1.65;;;7.20;99.90;;;;;;5010783;28;20018;-66
2021/11/24 05:00:12;;;;;;;7.80;1.35;;;7.30;99.90;;;;;;5010103;28;20392;-66
2021/11/24 05:02:37;;;;;;;7.45;1.20;;;7.20;99.90;;;;;;5010880;28;20026;-66
2021/11/24 05:05:03;;;;;;;5.88;1.27;;;7.20;99.90;;;;;;5010436;28;20358;-66
2021/11/24 05:07:29;;;;;;;8.55;1.15;;;7.10;99.90;;;;;;5010731;28;20033;-66
2021/11/24 05:09:54;;;;;;;5.72;1.23;;;7.00;99.90;;;;;;5009727;28;20104;-66
2021/11/24 05:12:20;;;;;;;9.20;1.10;;;7.00;99.90;;;;;;5010690;28;20030;-66
2021/11/24 05:14:48;;;;;;;11.45;1.23;;;6.80;99.90;;;;;;5010330;28;20056;-66
2021/11/24 05:17:16;;;;;;;4.35;0.70;;;6.70;99.90;;;;;;5010351;28;20109;-66
2021/11/24 05:19:46;;;;;;;6.03;0.90;;;6.50;99.90;;;;;;5009967;28;20030;-66
2021/11/24 05:22:11;;;;;;;4.63;1.00;;;6.40;99.90;;;;;;5010548;28;20022;-66
2021/11/24 05:24:37;;;;;;;4.03;1.02;;;6.20;99.90;;;;;;5010410;28;20048;-66
2021/11/24 05:27:03;;;;;;;2.38;1.13;;;6.10;99.90;;;;;;5010507;28;20548;-66
2021/11/24 05:29:28;;;;;;;3.92;0.88;;;6.10;99.90;;;;;;5010506;28;20108;-66
2021/11/24 05:31:54;;;;;;;10.82;1.08;;;6.00;99.90;;;;;;5009769;28;20038;-66
2021/11/24 05:34:19;;;;;;;11.05;1.30;;;6.00;99.90;;;;;;5010057;28;20109;-66
2021/11/24 05:36:45;;;;;;;7.47;1.17;;;6.10;99.90;;;;;;5010367;28;20033;-66
2021/11/24 05:39:11;;;;;;;4.25;0.90;;;6.20;99.90;;;;;;5010260;28;20026;-66
2021/11/24 05:41:41;;;;;;;4.65;1.17;;;6.30;99.90;;;;;;5009773;28;20117;-66
2021/11/24 05:44:26;;;;;;;4.72;1.00;;;6.40;99.90;;;;;;5010548;28;20014;-66
2021/11/24 05:46:58;;;;;;;9.85;1.38;;;6.40;99.90;;;;;;5011240;28;20026;-66
2021/11/24 05:49:25;;;;;;;12.18;1.85;;;6.50;99.90;;;;;;5013389;28;20026;-66
2021/11/24 05:51:52;;;;;;;5.13;1.98;;;6.50;99.90;;;;;;5012938;28;20545;-65
2021/11/24 05:54:18;;;;;;;10.50;2.47;;;6.70;99.90;;;;;;5013211;28;20060;-66
2021/11/24 05:56:45;;;;;;;8.88;1.35;;;6.70;99.90;;;;;;5014465;28;20174;-66
2021/11/24 05:59:12;;;;;;;7.57;1.33;;;6.70;99.90;;;;;;5011929;28;20036;-66
2021/11/24 06:01:38;;;;;;;10.20;0.85;;;6.70;99.90;;;;;;5012588;28;20018;-66
2021/11/24 06:04:05;;;;;;;7.97;1.08;;;6.70;99.90;;;;;;5013191;28;20032;-66
2021/11/24 06:06:31;;;;;;;12.68;1.48;;;6.70;99.90;;;;;;5013091;28;20037;-66
2021/11/24 06:08:57;;;;;;;6.35;0.90;;;6.80;99.90;;;;;;5013421;28;20077;-66
2021/11/24 06:11:23;;;;;;;21.00;2.17;;;6.80;99.90;;;;;;5013655;28;20469;-67
2021/11/24 06:13:49;;;;;;;12.82;1.17;;;6.90;99.90;;;;;;5012983;28;20022;-66
2021/11/24 06:16:15;;;;;;;4.00;1.10;;;6.80;99.90;;;;;;5012760;28;20072;-66
2021/11/24 06:18:41;;;;;;;8.70;1.30;;;6.90;99.90;;;;;;5012944;28;20030;-66
2021/11/24 06:21:06;;;;;;;14.98;1.48;;;6.90;99.90;;;;;;5013197;28;20053;-66
2021/11/24 06:23:33;;;;;;;15.20;1.50;;;6.90;99.90;;;;;;5013113;28;20537;-66
2021/11/24 06:25:59;;;;;;;8.13;1.20;;;6.90;99.90;;;;;;5013074;28;20520;-66
2021/11/24 06:28:24;;;;;;;15.15;1.40;;;7.00;99.90;;;;;;5012609;28;20072;-66
2021/11/24 06:30:50;;;;;;;6.13;0.80;;;7.10;99.90;;;;;;5012603;28;20115;-66
2021/11/24 06:33:16;;;;;;;10.52;2.03;;;7.10;99.90;;;;;;5012734;28;20060;-66
2021/11/24 06:35:41;;;;;;;14.48;1.77;;;7.20;99.90;;;;;;5012948;28;20026;-66
2021/11/24 06:38:07;;;;;;;26.50;8.70;;;7.20;99.90;;;;;;5012075;28;20105;-66
2021/11/24 06:40:33;;;;;;;30.23;2.55;;;7.20;99.90;;;;;;5012896;28;20036;-66
2021/11/24 06:42:59;;;;;;;8.60;1.33;;;7.20;99.90;;;;;;5012814;28;20018;-66
2021/11/24 06:45:24;;;;;;;16.83;1.80;;;7.20;99.90;;;;;;5011983;28;20026;-66
2021/11/24 06:47:50;;;;;;;7.53;1.00;;;7.20;99.90;;;;;;5012781;28;20022;-66
2021/11/24 06:50:16;;;;;;;8.25;1.08;;;7.20;99.90;;;;;;5012770;28;20025;-66
2021/11/24 06:52:42;;;;;;;9.70;1.63;;;7.20;99.90;;;;;;5012478;28;20014;-66
2021/11/24 06:55:08;;;;;;;6.40;0.88;;;7.20;99.90;;;;;;5011804;28;20405;-66
2021/11/24 06:57:34;;;;;;;9.38;1.10;;;7.10;99.90;;;;;;5012188;28;20026;-66
2021/11/24 07:00:00;;;;;;;9.18;0.85;;;7.10;99.90;;;;;;5012236;28;20038;-66
2021/11/24 07:02:26;;;;;;;13.10;1.20;;;7.10;99.90;;;;;;5012352;28;20026;-66
2021/11/24 07:04:51;;;;;;;7.93;1.13;;;7.10;99.90;;;;;;5011580;28;20022;-66
2021/11/24 07:07:17;;;;;;;15.15;1.35;;;7.20;99.90;;;;;;5012236;28;20026;-66
2021/11/24 07:09:43;;;;;;;5.90;1.08;;;7.20;99.90;;;;;;5012231;28;20079;-67
2021/11/24 07:12:09;;;;;;;10.23;1.20;;;7.20;99.90;;;;;;5011894;28;20026;-66
2021/11/24 07:14:35;;;;;;;17.38;2.72;;;7.20;99.90;;;;;;5012328;28;20026;-66
2021/11/24 07:17:01;;;;;;;10.75;1.73;;;7.20;99.90;;;;;;5012338;28;20029;-66
2021/11/24 07:19:27;;;;;;;9.38;1.48;;;7.20;99.90;;;;;;5012207;28;20034;-66
2021/11/24 07:21:52;;;;;;;8.90;1.15;;;7.20;99.90;;;;;;5012047;28;20393;-66
2021/11/24 07:24:20;;;;;;;6.10;1.50;;;7.20;99.90;;;;;;5011796;28;20378;-66
2021/11/24 07:26:46;;;;;;;15.60;1.55;;;7.30;99.90;;;;;;5012216;28;20108;-67
2021/11/24 07:29:12;;;;;;;11.60;2.05;;;7.30;99.90;;;;;;5011855;28;20030;-66
2021/11/24 07:31:40;;;;;;;4.72;1.10;;;7.30;99.90;;;;;;5011844;28;20026;-66
2021/11/24 07:34:06;;;;;;;23.58;2.15;;;7.30;99.90;;;;;;5011393;28;20477;-66
2021/11/24 07:36:32;;;;;;;14.90;2.88;;;7.30;99.90;;;;;;5011758;28;20029;-67
2021/11/24 07:38:57;;;;;;;10.40;1.50;;;7.30;99.90;;;;;;5011671;28;20109;-66
2021/11/24 07:41:23;;;;;;;8.27;2.17;;;7.30;99.90;;;;;;5011936;28;20053;-66
2021/11/24 07:43:49;;;;;;;10.68;1.45;;;7.30;99.90;;;;;;5011601;28;20025;-66
2021/11/24 07:46:14;;;;;;;9.45;2.28;;;7.40;99.90;;;;;;5011122;28;20022;-66
2021/11/24 07:48:40;;;;;;;8.52;1.98;;;7.30;99.90;;;;;;5011702;28;20083;-66
2021/11/24 07:51:06;;;;;;;7.32;1.50;;;7.40;99.90;;;;;;5011623;28;20029;-66
2021/11/24 07:53:31;;;;;;;13.55;1.10;;;7.50;99.90;;;;;;5011847;28;20469;-66
2021/11/24 07:55:57;;;;;;;7.72;1.27;;;7.50;99.90;;;;;;5011333;28;20039;-66
2021/11/24 07:58:22;;;;;;;10.00;1.50;;;7.50;99.90;;;;;;5011400;28;20036;-66
2021/11/24 08:00:48;;;;;;;23.25;2.05;;;7.50;99.90;;;;;;5010858;28;20018;-66
2021/11/24 08:03:13;;;;;;;7.65;1.42;;;7.50;99.90;;;;;;5011678;28;20025;-66
2021/11/24 08:05:39;;;;;;;5.82;1.60;;;7.40;99.90;;;;;;5011834;28;20112;-66
2021/11/24 08:08:05;;;;;;;9.05;1.52;;;7.30;99.90;;;;;;5011550;28;20083;-66
2021/11/24 08:10:31;;;;;;;2.47;0.90;;;7.30;99.90;;;;;;5010363;28;20029;-66
2021/11/24 08:12:57;;;;;;;5.50;1.05;;;7.30;99.90;;;;;;5009496;28;20065;-66
2021/11/24 08:15:23;;;;;;;4.90;1.20;;;7.20;99.90;;;;;;5011159;28;20049;-66
2021/11/24 08:17:48;;;;;;;4.75;0.98;;;7.20;99.90;;;;;;5011114;28;20030;-66
2021/11/24 08:20:14;;;;;;;5.32;1.25;;;7.20;99.90;;;;;;5011132;28;20022;-66
2021/11/24 08:22:40;;;;;;;2.95;0.85;;;7.20;99.90;;;;;;5010554;28;20385;-66
2021/11/24 08:25:07;;;;;;;9.13;1.77;;;7.20;99.90;;;;;;5011545;28;20030;-66
2021/11/24 08:27:34;;;;;;;13.02;1.77;;;7.30;99.90;;;;;;5011053;28;20075;-66
2021/11/24 08:29:59;;;;;;;3.83;0.77;;;7.40;99.90;;;;;;5011219;28;20392;-66
2021/11/24 08:32:25;;;;;;;7.43;1.35;;;7.40;99.90;;;;;;5010443;28;20022;-67
2021/11/24 08:34:50;;;;;;;10.52;1.13;;;7.50;99.90;;;;;;5010852;28;20030;-66
2021/11/24 08:37:16;;;;;;;5.65;0.90;;;7.60;99.90;;;;;;5010738;28;20480;-66
2021/11/24 08:39:42;;;;;;;2.88;0.70;;;7.70;99.90;;;;;;5010769;28;20370;-66
2021/11/24 08:42:08;;;;;;;11.98;1.67;;;7.70;99.90;;;;;;5010480;28;20045;-66
2021/11/24 08:44:35;;;;;;;5.47;0.93;;;7.80;99.90;;;;;;5010570;28;20026;-66
2021/11/24 08:47:01;;;;;;;7.45;1.00;;;7.80;99.90;;;;;;5010255;28;20018;-66
2021/11/24 08:49:27;;;;;;;9.93;1.02;;;7.90;99.90;;;;;;5010782;28;20400;-66
2021/11/24 08:51:52;;;;;;;11.00;1.08;;;7.90;99.90;;;;;;5010683;28;20033;-67
2021/11/24 08:54:18;;;;;;;6.65;1.27;;;7.90;99.90;;;;;;5010660;28;20038;-66
2021/11/24 08:56:44;;;;;;;2.63;0.75;;;8.00;99.90;;;;;;5011208;28;20041;-66
2021/11/24 08:59:10;;;;;;;7.45;1.20;;;8.00;99.90;;;;;;5009973;28;20030;-66
2021/11/24 09:01:37;;;;;;;6.97;1.80;;;8.00;99.90;;;;;;5010553;28;20525;-66
2021/11/24 09:04:03;;;;;;;6.43;1.42;;;8.00;99.90;;;;;;5010450;28;20374;-66
2021/11/24 09:06:29;;;;;;;5.13;1.30;;;8.00;99.90;;;;;;5010526;28;20025;-68
2021/11/24 09:08:54;;;;;;;4.35;1.33;;;8.00;99.90;;;;;;5010693;28;20026;-66
2021/11/24 09:11:20;;;;;;;2.70;0.90;;;7.90;99.90;;;;;;5009910;28;20108;-66
2021/11/24 09:13:46;;;;;;;6.82;1.20;;;8.00;99.90;;;;;;5010343;28;20113;-66
2021/11/24 09:16:11;;;;;;;5.18;0.93;;;8.00;99.90;;;;;;5010940;28;20385;-66
2021/11/24 09:18:37;;;;;;;3.00;0.75;;;8.10;99.90;;;;;;5010370;28;20048;-66
2021/11/24 09:21:03;;;;;;;3.88;0.80;;;8.10;99.90;;;;;;5011900;28;20095;-66
2021/11/24 09:23:29;;;;;;;3.30;0.90;;;8.10;99.90;;;;;;5013829;28;20022;-67
2021/11/24 09:26:15;;;;;;;2.58;1.25;;;8.10;99.90;;;;;;5013057;28;20105;-67
2021/11/24 09:28:42;;;;;;;4.60;0.60;;;8.20;99.90;;;;;;5014045;28;20108;-67
2021/11/24 09:31:07;;;;;;;4.07;0.93;;;8.30;99.90;;;;;;5013676;28;20030;-67
2021/11/24 09:33:34;;;;;;;3.97;1.52;;;8.20;99.90;;;;;;5013957;28;20071;-67
2021/11/24 09:36:02;;;;;;;6.20;0.68;;;8.30;99.90;;;;;;5013843;28;20030;-67
2021/11/24 09:38:27;;;;;;;4.25;0.85;;;8.30;99.90;;;;;;5013005;28;20022;-66
2021/11/24 09:40:55;;;;;;;3.58;0.80;;;8.40;99.90;;;;;;5013857;28;20462;-66
2021/11/24 09:43:22;;;;;;;4.53;0.77;;;8.40;99.90;;;;;;5013820;28;20451;-66
2021/11/24 09:45:48;;;;;;;2.83;0.68;;;8.30;99.90;;;;;;5013393;28;20036;-66
2021/11/24 09:48:17;;;;;;;10.50;1.55;;;8.40;99.90;;;;;;5013478;28;20061;-66
2021/11/24 09:50:46;;;;;;;6.43;0.93;;;8.50;99.90;;;;;;5012926;28;20469;-66
2021/11/24 09:53:14;;;;;;;3.10;0.90;;;8.60;99.90;;;;;;5013426;28;20537;-66
2021/11/24 09:55:40;;;;;;;2.38;0.90;;;8.60;99.90;;;;;;5013161;28;20086;-66
2021/11/24 09:58:08;;;;;;;7.88;0.90;;;8.60;99.90;;;;;;5012348;28;20271;-66
2021/11/24 10:00:35;;;;;;;8.80;0.90;;;8.60;99.90;;;;;;5012748;28;20067;-66
2021/11/24 10:03:02;;;;;;;5.22;1.10;;;8.50;99.90;;;;;;5013279;28;20050;-66
2021/11/24 10:05:29;;;;;;;11.52;1.00;;;8.60;99.90;;;;;;5013370;28;20170;-67
2021/11/24 10:07:55;;;;;;;3.30;1.35;;;8.60;99.90;;;;;;5013438;28;20049;-67
2021/11/24 10:10:22;;;;;;;1.95;1.02;;;8.60;99.90;;;;;;5012848;28;20472;-66
2021/11/24 10:12:48;;;;;;;4.55;1.20;;;8.60;99.90;;;;;;5012537;28;20035;-66
2021/11/24 10:15:50;;;;;;;3.17;0.68;;;8.80;99.90;;;;;;5012993;28;20096;-66
2021/11/24 10:18:31;;;;;;;4.28;0.77;;;8.90;99.90;;;;;;5013463;28;20036;-67
2021/11/24 10:21:11;;;;;;;5.30;0.90;;;9.00;99.90;;;;;;5013032;28;20503;-67
2021/11/24 10:23:39;;;;;;;3.20;1.08;;;8.90;99.90;;;;;;5013257;28;20030;-67
2021/11/24 10:26:41;;;;;;;2.42;0.80;;;8.90;99.90;;;;;;5012589;28;20022;-66
2021/11/24 10:29:15;;;;;;;2.45;0.55;;;8.90;99.90;;;;;;5012990;28;20579;-67
2021/11/24 10:31:45;;;;;;;5.40;0.75;;;8.90;99.90;;;;;;5012897;28;20044;-66
2021/11/24 10:34:14;;;;;;;4.45;0.82;;;8.80;99.90;;;;;;5012147;28;20030;-66
2021/11/24 10:36:56;;;;;;;4.10;0.65;;;8.70;99.90;;;;;;5012162;28;20117;-66
2021/11/24 10:39:26;;;;;;;0.85;0.60;;;8.60;99.90;;;;;;5012496;28;20037;-66
2021/11/24 10:41:51;;;;;;;3.70;0.57;;;8.70;99.90;;;;;;5013250;28;20063;-66
2021/11/24 10:44:28;;;;;;;4.15;0.95;;;8.70;99.90;;;;;;5012557;28;20022;-66
2021/11/24 10:46:56;;;;;;;1.42;0.60;;;8.90;99.90;;;;;;5012677;28;20081;-66
2021/11/24 10:49:39;;;;;;;4.13;0.73;;;8.80;99.90;;;;;;5011871;28;20085;-66
2021/11/24 10:52:12;;;;;;;6.50;0.60;;;8.70;99.90;;;;;;5012395;28;20408;-66
2021/11/24 10:54:39;;;;;;;3.05;0.75;;;8.70;99.90;;;;;;5012278;28;20034;-66
2021/11/24 10:57:09;;;;;;;2.65;0.50;;;8.70;99.90;;;;;;5012660;28;20098;-66
2021/11/24 10:59:38;;;;;;;3.70;0.95;;;8.70;99.90;;;;;;5012254;28;20026;-66
2021/11/24 11:02:21;;;;;;;6.85;1.05;;;8.70;99.90;;;;;;5011998;28;20097;-66
2021/11/24 11:04:54;;;;;;;4.03;0.93;;;8.70;99.90;;;;;;5012530;28;20026;-66
2021/11/24 11:07:19;;;;;;;4.55;1.30;;;8.70;99.90;;;;;;5012481;28;20057;-66
2021/11/24 11:09:45;;;;;;;5.93;0.50;;;8.80;99.90;;;;;;5012038;28;20053;-66
2021/11/24 11:12:10;;;;;;;3.13;0.50;;;8.80;99.90;;;;;;5011856;28;20490;-66
2021/11/24 11:14:36;;;;;;;0.85;0.52;;;8.80;99.90;;;;;;5011495;28;20061;-66
2021/11/24 11:17:02;;;;;;;1.50;0.50;;;9.00;99.90;;;;;;5012679;28;20026;-66
2021/11/24 11:19:42;;;;;;;1.85;0.40;;;9.00;99.90;;;;;;5012280;28;20057;-66
2021/11/24 11:22:10;;;;;;;1.45;0.50;;;9.20;99.90;;;;;;5012346;28;20354;-66
2021/11/24 11:24:36;;;;;;;4.53;0.93;;;9.20;99.90;;;;;;5011582;28;20366;-66
2021/11/24 11:27:02;;;;;;;0.95;0.40;;;9.20;99.90;;;;;;5012226;28;20100;-66
2021/11/24 11:29:28;;;;;;;2.97;0.50;;;9.20;99.90;;;;;;5012199;28;20464;-66
2021/11/24 11:31:55;;;;;;;3.63;1.13;;;9.10;99.90;;;;;;5012174;28;20392;-66
2021/11/24 11:34:21;;;;;;;1.20;0.57;;;9.20;99.90;;;;;;5011343;28;20022;-66
2021/11/24 11:36:48;;;;;;;3.40;0.90;;;9.20;99.90;;;;;;5012057;28;20026;-66
2021/11/24 11:39:14;;;;;;;5.25;1.73;;;9.30;99.90;;;;;;5011513;28;20026;-66
2021/11/24 11:41:42;;;;;;;3.60;1.00;;;9.20;99.90;;;;;;5011757;28;20091;-66
2021/11/24 11:44:13;;;;;;;4.03;1.80;;;9.20;99.90;;;;;;5011860;28;20030;-66
2021/11/24 11:46:49;;;;;;;8.13;1.08;;;9.20;99.90;;;;;;5011385;28;20366;-66
2021/11/24 11:49:18;;;;;;;5.32;1.50;;;9.10;99.90;;;;;;5011915;28;20049;-66
2021/11/24 11:51:47;;;;;;;17.88;2.65;;;9.00;99.90;;;;;;5011854;28;20048;-66
2021/11/24 11:54:23;;;;;;;22.05;4.18;;;9.00;99.90;;;;;;5011583;28;20461;-66
2021/11/24 11:56:49;;;;;;;13.57;2.90;;;8.90;99.90;;;;;;5048653;23;20507;-68
2021/11/24 11:59:19;;;;;;;19.08;2.58;;;8.80;99.90;;;;;;5031111;28;20033;-68
2021/11/24 12:01:45;;;;;;;15.80;3.05;;;8.80;99.90;;;;;;5031273;28;20030;-68
2021/11/24 12:04:16;;;;;;;17.77;3.30;;;8.80;99.90;;;;;;5031213;28;20096;-68
2021/11/24 12:06:49;;;;;;;21.60;4.00;;;8.80;99.90;;;;;;5030518;28;20026;-68
2021/11/24 12:09:46;;;;;;;15.60;3.85;;;8.80;99.90;;;;;;5031313;28;20038;-68
2021/11/24 12:12:36;;;;;;;22.98;3.10;;;8.80;99.90;;;;;;5013281;28;20600;-68
2021/11/24 12:15:17;;;;;;;18.58;3.45;;;8.80;99.90;;;;;;5031178;28;20056;-69
2021/11/24 12:18:00;;;;;;;26.95;3.25;;;8.70;99.90;;;;;;5030928;28;20022;-68
2021/11/24 12:20:37;;;;;;;17.25;2.63;;;8.80;99.90;;;;;;5030835;28;20051;-68
2021/11/24 12:23:03;;;;;;;15.60;3.08;;;8.80;99.90;;;;;;5013190;28;20053;-68
2021/11/24 12:25:32;;;;;;;13.82;3.30;;;8.80;99.90;;;;;;5030874;28;20061;-68
2021/11/24 12:27:58;;;;;;;13.88;2.92;;;8.90;99.90;;;;;;5030827;28;20476;-68
2021/11/24 12:30:51;;;;;;;17.48;3.65;;;8.80;99.90;;;;;;5030728;28;20029;-68
2021/11/24 12:33:25;;;;;;;13.63;3.40;;;8.80;99.90;;;;;;5030168;28;20070;-68
2021/11/24 12:36:02;;;;;;;15.27;3.15;;;8.80;99.90;;;;;;5030936;28;20021;-68
2021/11/24 12:38:33;;;;;;;16.40;3.33;;;8.70;99.90;;;;;;5030812;28;20075;-68
2021/11/24 12:41:02;;;;;;;10.60;3.13;;;8.70;99.90;;;;;;5031196;28;20022;-68
2021/11/24 12:43:29;;;;;;;13.75;4.13;;;8.80;99.90;;;;;;5029971;28;20026;-68
2021/11/24 12:46:10;;;;;;;15.88;3.80;;;8.70;99.90;;;;;;5030008;28;20029;-68
2021/11/24 12:48:43;;;;;;;18.70;4.80;;;8.70;99.90;;;;;;5030668;28;20492;-68
2021/11/24 12:51:21;;;;;;;28.48;4.15;;;8.60;99.90;;;;;;5031013;28;20464;-68
2021/11/24 12:53:56;;;;;;;21.92;3.60;;;8.60;99.90;;;;;;5030140;28;20109;-68